createdAt,value
2022-10-17T00:00:10.864Z,91.34
2022-10-17T00:04:27.953Z,91.30
2022-10-17T00:08:25.912Z,91.40
2022-10-17T00:12:22.414Z,91.48
2022-10-17T00:16:30.083Z,91.49
2022-10-17T00:20:06.945Z,91.68
2022-10-17T00:24:07.128Z,91.70
2022-10-17T00:28:04.109Z,91.86
2022-10-17T00:32:01.653Z,91.88
2022-10-17T00:36:18.929Z,91.83
2022-10-17T00:40:16.144Z,91.73
2022-10-17T00:44:32.148Z,92.09
2022-10-17T00:48:28.897Z,92.13
2022-10-17T00:52:30.193Z,92.04
2022-10-17T00:56:28.136Z,91.97
2022-10-17T01:00:25.406Z,92.13
2022-10-17T01:04:22.567Z,92.26
2022-10-17T01:08:19.897Z,92.27
2022-10-17T01:12:24.266Z,92.08
2022-10-17T01:16:39.678Z,92.09
2022-10-17T01:21:19.909Z,92.49
2022-10-17T01:25:35.708Z,92.28
2022-10-17T01:29:58.289Z,92.37
2022-10-17T01:34:12.731Z,92.37
2022-10-17T01:38:21.238Z,92.47
2022-10-17T01:42:54.142Z,92.31
2022-10-17T01:47:00.542Z,92.40
2022-10-17T01:51:06.689Z,92.46
2022-10-17T01:55:09.544Z,92.55
2022-10-17T01:59:22.529Z,92.45
2022-10-17T02:03:41.168Z,92.41
2022-10-17T02:06:56.848Z,92.48
2022-10-17T02:11:07.249Z,92.51
2022-10-17T02:15:20.629Z,92.52
2022-10-17T02:19:52.034Z,92.57
2022-10-17T02:24:21.477Z,92.58
2022-10-17T02:28:31.708Z,92.56
2022-10-17T02:32:42.801Z,92.63
2022-10-17T02:36:56.142Z,92.77
2022-10-17T02:40:54.618Z,93.36
2022-10-17T02:44:54.254Z,93.24
2022-10-17T02:49:02.074Z,93.18
2022-10-17T02:53:07.604Z,93.28
2022-10-17T02:57:17.265Z,93.30
2022-10-17T03:01:23.355Z,93.24
2022-10-17T03:05:29.655Z,93.27
2022-10-17T03:09:26.869Z,93.38
2022-10-17T03:13:24.334Z,93.42
2022-10-17T03:17:21.397Z,93.50
2022-10-17T03:21:18.540Z,93.63
2022-10-17T03:25:16.415Z,93.70
2022-10-17T03:29:14.254Z,93.72
2022-10-17T03:33:14.630Z,93.84
2022-10-17T03:37:11.989Z,93.87
2022-10-17T03:41:10.132Z,93.93
2022-10-17T03:45:07.744Z,94.05
2022-10-17T03:49:04.694Z,94.12
2022-10-17T03:53:02.274Z,94.12
2022-10-17T03:56:59.656Z,94.19
2022-10-17T04:00:56.746Z,94.16
2022-10-17T04:04:54.153Z,94.13
2022-10-17T04:08:51.728Z,94.12
2022-10-17T04:12:48.790Z,94.02
2022-10-17T04:16:45.837Z,94.05
2022-10-17T04:20:42.890Z,94.07
2022-10-17T04:24:40.265Z,94.05
2022-10-17T04:32:39.901Z,93.98
2022-10-17T04:36:38.398Z,93.92
2022-10-17T04:40:36.645Z,93.84
2022-10-17T04:44:35.979Z,93.75
2022-10-17T04:48:12.169Z,93.63
2022-10-17T04:51:51.498Z,93.49
2022-10-17T04:55:27.738Z,93.43
2022-10-17T04:59:05.277Z,93.44
2022-10-17T05:02:43.002Z,93.45
2022-10-17T05:06:24.862Z,93.51
2022-10-17T05:10:00.991Z,93.57
2022-10-17T05:13:38.887Z,93.53
2022-10-17T05:17:16.854Z,93.52
2022-10-17T05:20:54.617Z,93.57
2022-10-17T05:24:32.054Z,93.57
2022-10-17T05:28:09.756Z,93.55
2022-10-17T05:31:51.977Z,93.48
2022-10-17T05:35:30.895Z,93.18
2022-10-17T05:39:07.368Z,93.02
2022-10-17T05:42:49.283Z,93.05
2022-10-17T05:46:26.972Z,93.10
2022-10-17T05:50:03.111Z,93.02
2022-10-17T05:53:42.315Z,92.98
2022-10-17T05:57:19.492Z,92.95
2022-10-17T06:01:03.915Z,92.80
2022-10-17T06:04:45.629Z,92.72
2022-10-17T06:08:22.284Z,92.45
2022-10-17T06:12:00.470Z,92.29
2022-10-17T06:15:37.025Z,92.27
2022-10-17T06:19:14.899Z,92.05
2022-10-17T06:22:52.871Z,91.93
2022-10-17T06:26:30.233Z,91.98
2022-10-17T06:30:08.829Z,91.57
2022-10-17T06:33:45.520Z,91.04
2022-10-17T06:37:23.082Z,90.82
2022-10-17T06:41:14.286Z,90.86
2022-10-17T06:44:50.354Z,90.55
2022-10-17T06:48:27.899Z,89.49
2022-10-17T06:52:24.536Z,88.96
2022-10-17T06:55:43.612Z,88.55
2022-10-17T06:59:22.655Z,88.55
2022-10-17T07:02:58.608Z,88.28
2022-10-17T07:06:38.007Z,87.47
2022-10-17T07:10:14.305Z,87.08
2022-10-17T07:13:54.925Z,86.73
2022-10-17T07:17:32.178Z,86.22
2022-10-17T07:21:09.121Z,84.39
2022-10-17T07:24:46.514Z,84.25
2022-10-17T07:28:23.998Z,84.05
2022-10-17T07:32:04.124Z,83.65
2022-10-17T07:35:43.406Z,82.84
2022-10-17T07:39:20.669Z,81.66
2022-10-17T07:42:57.295Z,81.16
2022-10-17T07:46:36.267Z,80.10
2022-10-17T07:50:12.770Z,79.89
2022-10-17T07:53:51.115Z,78.45
2022-10-17T07:57:30.400Z,77.37
2022-10-17T08:01:15.655Z,76.01
2022-10-17T08:04:59.984Z,74.11
2022-10-17T08:08:37.931Z,73.54
2022-10-17T08:12:15.850Z,71.87
2022-10-17T08:15:53.070Z,72.98
2022-10-17T08:19:31.365Z,74.03
2022-10-17T08:23:08.520Z,74.37
2022-10-17T08:26:48.233Z,74.64
2022-10-17T08:30:30.942Z,74.52
2022-10-17T08:34:08.368Z,74.24
2022-10-17T08:37:45.710Z,73.74
2022-10-17T08:41:45.725Z,72.90
2022-10-17T08:45:38.175Z,72.68
2022-10-17T08:49:47.533Z,70.92
2022-10-17T08:53:48.007Z,68.55
2022-10-17T08:57:24.305Z,67.16
2022-10-17T09:01:12.678Z,66.26
2022-10-17T09:05:29.534Z,65.45
2022-10-17T09:09:24.708Z,64.55
2022-10-17T09:13:25.167Z,63.02
2022-10-17T09:17:35.362Z,62.14
2022-10-17T09:21:17.669Z,61.31
2022-10-17T09:25:06.988Z,60.96
2022-10-17T09:28:44.576Z,60.33
2022-10-17T09:32:25.891Z,57.98
2022-10-17T09:36:05.671Z,57.01
2022-10-17T09:40:00.973Z,57.15
2022-10-17T09:43:20.487Z,56.65
2022-10-17T09:47:05.896Z,56.67
2022-10-17T09:50:48.264Z,56.26
2022-10-17T09:54:43.397Z,55.48
2022-10-17T09:58:21.372Z,55.01
2022-10-17T10:02:19.273Z,54.91
2022-10-17T10:06:05.454Z,53.31
2022-10-17T10:09:48.784Z,52.03
2022-10-17T10:13:27.795Z,52.10
2022-10-17T10:17:06.457Z,51.55
2022-10-17T10:20:46.969Z,49.91
2022-10-17T10:24:30.612Z,49.19
2022-10-17T10:28:12.420Z,48.72
2022-10-17T10:31:49.969Z,48.89
2022-10-17T10:35:34.617Z,49.54
2022-10-17T10:39:40.309Z,48.70
2022-10-17T10:43:41.651Z,47.91
2022-10-17T10:47:20.301Z,47.11
2022-10-17T10:51:14.531Z,47.58
2022-10-17T10:54:59.766Z,47.22
2022-10-17T10:58:50.855Z,48.45
2022-10-17T11:02:31.047Z,48.63
2022-10-17T11:06:19.345Z,48.85
2022-10-17T11:10:03.175Z,49.17
2022-10-17T11:13:54.263Z,48.83
2022-10-17T11:17:32.045Z,48.88
2022-10-17T11:21:20.122Z,48.81
2022-10-17T11:25:32.538Z,48.61
2022-10-17T11:29:32.369Z,48.26
2022-10-17T11:32:53.911Z,47.82
2022-10-17T11:36:33.775Z,48.23
2022-10-17T11:40:33.974Z,48.39
2022-10-17T11:44:22.268Z,48.71
2022-10-17T11:48:10.868Z,47.39
2022-10-17T11:52:43.995Z,46.96
2022-10-17T11:56:42.680Z,46.24
2022-10-17T12:00:42.756Z,45.27
2022-10-17T12:04:49.713Z,44.62
2022-10-17T12:09:01.803Z,43.91
2022-10-17T12:12:40.559Z,43.53
2022-10-17T12:16:19.790Z,42.84
2022-10-17T12:20:18.831Z,43.68
2022-10-17T12:23:56.028Z,45.24
2022-10-17T12:28:13.379Z,46.94
2022-10-17T12:31:49.513Z,47.75
2022-10-17T12:35:28.977Z,46.27
2022-10-17T12:39:07.802Z,45.62
2022-10-17T12:42:49.753Z,46.92
2022-10-17T12:46:44.446Z,46.52
2022-10-17T12:51:17.665Z,45.82
2022-10-17T12:55:12.658Z,45.03
2022-10-17T12:59:16.216Z,46.47
2022-10-17T13:02:55.571Z,47.50
2022-10-17T13:06:38.068Z,44.39
2022-10-17T13:10:22.320Z,44.15
2022-10-17T13:14:01.284Z,43.39
2022-10-17T13:17:43.036Z,42.65
2022-10-17T13:21:21.149Z,41.92
2022-10-17T13:25:19.995Z,41.68
2022-10-17T13:29:07.446Z,41.07
2022-10-17T13:32:45.809Z,42.80
2022-10-17T13:36:21.897Z,44.54
2022-10-17T13:40:06.965Z,45.34
2022-10-17T13:43:58.345Z,44.49
2022-10-17T13:47:39.420Z,44.23
2022-10-17T13:51:16.954Z,44.25
2022-10-17T13:54:54.807Z,44.73
2022-10-17T13:58:44.183Z,45.11
2022-10-17T14:02:29.518Z,45.80
2022-10-17T14:06:15.658Z,47.62
2022-10-17T14:09:52.261Z,47.47
2022-10-17T14:13:36.180Z,48.21
2022-10-17T14:17:25.207Z,49.93
2022-10-17T14:25:03.726Z,52.97
2022-10-17T14:28:41.762Z,53.99
2022-10-17T14:32:22.336Z,55.11
2022-10-17T14:36:03.873Z,55.97
2022-10-17T14:39:41.069Z,56.68
2022-10-17T14:43:23.957Z,57.40
2022-10-17T14:47:30.154Z,58.14
2022-10-17T14:51:18.604Z,58.76
2022-10-17T14:54:56.344Z,59.31
2022-10-17T14:58:33.946Z,59.72
2022-10-17T15:02:15.124Z,60.30
2022-10-17T15:05:52.927Z,60.48
2022-10-17T15:09:30.124Z,61.02
2022-10-17T15:13:27.067Z,61.37
2022-10-17T15:17:05.745Z,61.92
2022-10-17T15:20:41.715Z,62.36
2022-10-17T15:24:19.593Z,62.92
2022-10-17T15:27:57.840Z,63.31
2022-10-17T15:31:36.459Z,63.64
2022-10-17T15:35:14.057Z,63.99
2022-10-17T15:38:53.663Z,64.32
2022-10-17T15:42:30.998Z,64.65
2022-10-17T15:46:14.389Z,65.18
2022-10-17T15:49:51.537Z,65.89
2022-10-17T15:53:28.413Z,66.32
2022-10-17T15:57:06.431Z,66.82
2022-10-17T16:00:44.231Z,67.27
2022-10-17T16:04:22.079Z,67.68
2022-10-17T16:07:58.894Z,68.10
2022-10-17T16:11:55.684Z,68.45
2022-10-17T16:15:20.989Z,68.70
2022-10-17T16:19:16.500Z,69.03
2022-10-17T16:22:40.826Z,69.29
2022-10-17T16:26:17.674Z,69.62
2022-10-17T16:29:54.645Z,70.02
2022-10-17T16:33:32.452Z,70.55
2022-10-17T16:37:10.219Z,70.99
2022-10-17T16:40:47.844Z,71.23
2022-10-17T16:44:25.196Z,71.55
2022-10-17T16:48:03.182Z,72.11
2022-10-17T16:51:40.644Z,72.38
2022-10-17T16:55:19.565Z,72.61
2022-10-17T16:58:57.096Z,72.69
2022-10-17T17:02:34.877Z,72.85
2022-10-17T17:06:20.954Z,73.02
2022-10-17T17:09:57.297Z,73.32
2022-10-17T17:13:35.915Z,73.85
2022-10-17T17:17:19.623Z,74.20
2022-10-17T17:21:09.723Z,74.47
2022-10-17T17:24:47.274Z,74.82
2022-10-17T17:28:24.285Z,75.06
2022-10-17T17:32:01.222Z,75.39
2022-10-17T17:35:41.529Z,75.64
2022-10-17T17:39:17.727Z,75.97
2022-10-17T17:42:56.112Z,76.52
2022-10-17T17:46:33.659Z,76.81
2022-10-17T17:50:11.566Z,77.16
2022-10-17T17:53:49.577Z,77.55
2022-10-17T17:57:26.370Z,77.89
2022-10-17T18:01:14.310Z,78.28
2022-10-17T18:04:51.905Z,78.73
2022-10-17T18:08:30.425Z,78.90
2022-10-17T18:12:07.722Z,79.19
2022-10-17T18:15:44.955Z,79.47
2022-10-17T18:19:24.101Z,79.94
2022-10-17T18:23:03.398Z,79.94
2022-10-17T18:26:40.498Z,80.32
2022-10-17T18:30:20.164Z,80.34
2022-10-17T18:34:02.898Z,80.48
2022-10-17T18:37:39.320Z,80.57
2022-10-17T18:41:19.820Z,80.69
2022-10-17T18:44:56.412Z,81.04
2022-10-17T18:48:34.586Z,81.17
2022-10-17T18:52:11.578Z,81.28
2022-10-17T18:55:51.335Z,81.52
2022-10-17T18:59:28.250Z,81.60
2022-10-17T19:03:05.359Z,81.75
2022-10-17T19:06:44.638Z,82.04
2022-10-17T19:10:20.595Z,81.96
2022-10-17T19:14:02.148Z,82.09
2022-10-17T19:17:38.263Z,82.26
2022-10-17T19:21:21.523Z,82.31
2022-10-17T19:24:59.018Z,82.46
2022-10-17T19:28:39.448Z,82.64
2022-10-17T19:32:17.971Z,82.71
2022-10-17T19:35:59.345Z,82.89
2022-10-17T19:39:37.277Z,83.06
2022-10-17T19:43:14.901Z,83.29
2022-10-17T19:46:54.734Z,83.35
2022-10-17T19:50:32.028Z,83.37
2022-10-17T19:54:09.416Z,83.57
2022-10-17T19:57:48.257Z,83.76
2022-10-17T20:01:29.004Z,83.80
2022-10-17T20:05:18.422Z,83.86
2022-10-17T20:08:56.878Z,83.84
2022-10-17T20:12:35.247Z,83.90
2022-10-17T20:16:18.485Z,84.03
2022-10-17T20:19:54.538Z,84.04
2022-10-17T20:23:33.160Z,84.18
2022-10-17T20:27:09.961Z,84.11
2022-10-17T20:30:49.197Z,84.23
2022-10-17T20:34:26.802Z,84.34
2022-10-17T20:38:02.997Z,84.27
2022-10-17T20:41:59.727Z,84.49
2022-10-17T20:45:18.695Z,84.51
2022-10-17T20:48:59.230Z,84.59
2022-10-17T20:52:37.667Z,84.62
2022-10-17T20:56:20.561Z,84.88
2022-10-17T20:59:57.055Z,85.01
2022-10-17T21:03:42.322Z,85.09
2022-10-17T21:07:22.600Z,85.29
2022-10-17T21:11:20.390Z,85.54
2022-10-17T21:14:56.652Z,85.59
2022-10-17T21:18:34.472Z,85.69
2022-10-17T21:22:11.982Z,85.97
2022-10-17T21:25:49.752Z,86.06
2022-10-17T21:29:27.356Z,86.05
2022-10-17T21:33:05.675Z,86.20
2022-10-17T21:36:42.977Z,86.49
2022-10-17T21:40:20.766Z,86.73
2022-10-17T21:44:01.015Z,87.06
2022-10-17T21:47:38.542Z,87.28
2022-10-17T21:51:18.795Z,87.27
2022-10-17T21:54:54.677Z,87.36
2022-10-17T21:58:33.378Z,87.47
2022-10-17T22:02:10.163Z,87.52
2022-10-17T22:05:48.274Z,87.62
2022-10-17T22:09:26.710Z,87.59
2022-10-17T22:13:04.905Z,87.64
2022-10-17T22:16:41.910Z,87.63
2022-10-17T22:20:18.780Z,87.58
2022-10-17T22:24:02.915Z,87.79
2022-10-17T22:27:38.894Z,87.96
2022-10-17T22:31:16.605Z,87.93
2022-10-17T22:34:54.710Z,88.01
2022-10-17T22:38:33.596Z,88.13
2022-10-17T22:42:10.376Z,88.11
2022-10-17T22:45:58.828Z,88.14
2022-10-17T22:49:35.158Z,88.34
2022-10-17T22:53:12.646Z,88.31
2022-10-17T23:08:01.415Z,88.67
2022-10-17T23:11:23.837Z,88.74
2022-10-17T23:14:59.534Z,88.79
2022-10-17T23:18:38.819Z,88.88
2022-10-17T23:22:14.599Z,88.94
2022-10-17T23:25:53.102Z,89.05
2022-10-17T23:29:33.857Z,89.04
2022-10-17T23:33:13.032Z,88.97
2022-10-17T23:36:50.049Z,89.10
2022-10-17T23:40:28.408Z,89.12
2022-10-17T23:55:33.495Z,89.22
